Dayton, Maine
Current Conditions -  °F | °C
As of 12:35 PM on Friday 21 Nov 2014 (Local Time) from KSFM Reporting Station
Few Clouds Few Clouds  
Wind Chill: -8°   Ceiling: Unl
Heat Index: -1°   Visibility: 10mi
Dew Point: -14°   Wind: 18mph
Humidity: 37%   Direction: 280°W
Pressure: 30.07"   Gusts: 31mph
Location:  43.4906°N, 70.5283°W
Report Text: KSFM 211735Z AUTO 28016G27KT 10SM FEW048 M01/M14 A3007 RMK AO1
Loading
Personal Weather Stations






























Interactive Weather Map New forecast layout! Learn more

10-Day Weather Forecast

Advertisements
Track Severe Weather on mobile